Terminal Aerodrome Forecast
Issued by NWS Springfield, MO

Home | Current Version | Previous Version | Text Only | Print | Product List | Glossary On
Versions: 1 2 3 4 5 6 7 8 9 10 11 12 13 14 15 16 17 18 19 20 21
749
FTUS43 KSGF 271001 AAA
TAFSGF
TAF AMD
KSGF 271001Z 2710/2806 15005KT P6SM SKC
     FM271600 14012KT P6SM BKN250
     FM272200 15015KT P6SM OVC040
     FM280000 16015KT P6SM OVC025=

USA.gov is the U.S. government's official web portal to all federal, state and local government web resources and services.